createdAt,value
2022-08-16T00:01:46.560Z,24.73
2022-08-16T00:06:48.674Z,24.98
2022-08-16T00:11:52.770Z,25.35
2022-08-16T00:17:15.954Z,25.63
2022-08-16T00:22:21.056Z,23.83
2022-08-16T00:27:27.007Z,24.00
2022-08-16T00:32:33.158Z,26.33
2022-08-16T00:37:58.830Z,24.52
2022-08-16T00:42:57.115Z,25.10
2022-08-16T00:47:58.877Z,22.50
2022-08-16T00:53:00.768Z,22.13
2022-08-16T00:58:12.777Z,23.10
2022-08-16T01:03:20.596Z,24.38
2022-08-16T01:08:36.793Z,25.73
2022-08-16T01:13:39.836Z,23.95
2022-08-16T01:18:53.303Z,25.25
2022-08-16T01:24:51.984Z,23.50
2022-08-16T01:35:07.740Z,27.17
2022-08-16T01:40:11.441Z,28.08
2022-08-16T01:45:14.783Z,26.70
2022-08-16T01:50:42.245Z,27.33
2022-08-16T01:55:53.886Z,30.63
2022-08-16T02:00:57.650Z,25.58
2022-08-16T02:05:59.802Z,28.33
2022-08-16T02:11:08.670Z,29.02
2022-08-16T02:16:18.492Z,29.98
2022-08-16T02:21:31.299Z,30.13
2022-08-16T02:26:34.446Z,30.42
2022-08-16T02:32:03.881Z,33.72
2022-08-16T02:36:58.801Z,31.65
2022-08-16T02:42:00.546Z,30.83
2022-08-16T02:47:02.538Z,31.70
2022-08-16T02:52:05.035Z,36.00
2022-08-16T02:57:11.365Z,34.78
2022-08-16T03:02:13.576Z,34.10
2022-08-16T03:07:27.533Z,34.97
2022-08-16T03:12:55.645Z,34.15
2022-08-16T03:17:54.247Z,34.00
2022-08-16T03:22:58.520Z,34.42
2022-08-16T03:28:07.927Z,35.03
2022-08-16T03:33:36.823Z,35.67
2022-08-16T03:38:39.374Z,34.97
2022-08-16T03:43:51.949Z,34.63
2022-08-16T03:48:59.215Z,33.42
2022-08-16T03:54:01.748Z,33.60
2022-08-16T03:59:06.584Z,32.60
2022-08-16T04:04:33.142Z,33.42
2022-08-16T04:09:38.497Z,33.38
2022-08-16T04:14:46.846Z,33.28
2022-08-16T04:19:51.651Z,35.60
2022-08-16T04:24:59.334Z,32.53
2022-08-16T04:30:11.004Z,34.13
2022-08-16T04:35:22.804Z,33.50
2022-08-16T04:40:27.484Z,31.73
2022-08-16T04:45:36.274Z,32.90
2022-08-16T04:50:49.286Z,30.52
2022-08-16T04:55:55.080Z,30.30
2022-08-16T05:01:01.275Z,30.63
2022-08-16T05:06:09.253Z,32.28
2022-08-16T05:11:13.739Z,31.85
2022-08-16T05:16:21.761Z,29.70
2022-08-16T05:21:38.141Z,29.58
2022-08-16T05:26:50.650Z,31.35
2022-08-16T05:31:54.239Z,30.42
2022-08-16T05:36:58.621Z,30.63
2022-08-16T05:42:07.886Z,31.85
2022-08-16T05:47:15.211Z,31.30
2022-08-16T05:52:20.888Z,28.77
2022-08-16T05:57:23.209Z,36.70
2022-08-16T06:02:29.796Z,29.58
2022-08-16T06:07:35.296Z,31.80
2022-08-16T06:12:43.432Z,33.15
2022-08-16T06:17:46.567Z,32.75
2022-08-16T06:23:02.922Z,30.52
2022-08-16T06:33:42.092Z,31.45
2022-08-16T06:38:56.648Z,31.55
2022-08-16T06:44:21.396Z,33.22
2022-08-16T06:49:30.323Z,33.47
2022-08-16T06:54:35.926Z,32.10
2022-08-16T06:59:52.514Z,34.40
2022-08-16T07:05:14.926Z,32.00
2022-08-16T07:10:25.740Z,35.22
2022-08-16T07:15:29.768Z,32.92
2022-08-16T07:20:47.106Z,31.45
2022-08-16T07:25:50.267Z,27.88
2022-08-16T07:30:55.220Z,35.55
2022-08-16T07:36:09.929Z,33.30
2022-08-16T07:41:16.581Z,33.70
2022-08-16T07:46:38.992Z,31.70
2022-08-16T07:51:48.895Z,34.30
2022-08-16T07:56:56.559Z,30.58
2022-08-16T08:01:59.847Z,30.88
2022-08-16T08:07:02.569Z,31.30
2022-08-16T08:12:43.705Z,29.27
2022-08-16T08:17:42.698Z,29.10
2022-08-16T08:22:49.389Z,23.90
2022-08-16T08:27:51.926Z,26.10
2022-08-16T08:33:01.326Z,26.70
2022-08-16T08:38:12.828Z,21.52
2022-08-16T08:43:19.163Z,21.50
2022-08-16T08:48:33.681Z,17.75
2022-08-16T08:53:46.543Z,16.23
2022-08-16T08:59:04.663Z,18.05
2022-08-16T09:04:17.445Z,16.95
2022-08-16T09:09:22.381Z,18.48
2022-08-16T09:14:29.591Z,18.25
2022-08-16T09:19:33.845Z,14.25
2022-08-16T09:24:53.218Z,18.73
2022-08-16T09:30:00.169Z,19.00
2022-08-16T09:35:05.097Z,18.67
2022-08-16T09:40:33.012Z,15.35
2022-08-16T09:45:30.097Z,17.45
2022-08-16T09:50:38.955Z,20.00
2022-08-16T09:55:44.247Z,18.40
2022-08-16T10:00:46.514Z,17.83
2022-08-16T10:12:11.058Z,18.73
2022-08-16T10:17:13.883Z,15.85
2022-08-16T10:22:17.204Z,17.88
2022-08-16T10:27:26.993Z,15.27
2022-08-16T10:32:32.307Z,14.80
2022-08-16T10:37:36.270Z,15.77
2022-08-16T10:42:38.320Z,14.85
2022-08-16T10:47:43.078Z,14.88
2022-08-16T10:52:45.085Z,14.52
2022-08-16T10:57:55.136Z,16.30
2022-08-16T11:03:01.861Z,18.30
2022-08-16T11:08:07.031Z,21.65
2022-08-16T11:19:02.792Z,17.83
2022-08-16T11:23:58.076Z,17.20
2022-08-16T11:29:16.015Z,15.18
2022-08-16T11:34:19.812Z,18.30
2022-08-16T11:39:23.337Z,18.98
2022-08-16T11:44:52.016Z,15.35
2022-08-16T11:49:49.431Z,16.17
2022-08-16T11:54:56.965Z,16.10
2022-08-16T11:59:59.043Z,16.38
2022-08-16T12:05:01.080Z,13.82
2022-08-16T12:10:06.822Z,14.02
2022-08-16T12:15:11.011Z,13.98
2022-08-16T12:20:19.712Z,16.25
2022-08-16T12:25:23.832Z,17.95
2022-08-16T12:30:33.556Z,15.20
2022-08-16T12:35:40.029Z,16.70
2022-08-16T12:40:47.533Z,15.10
2022-08-16T12:45:55.789Z,16.88
2022-08-16T12:50:58.270Z,16.43
2022-08-16T12:56:03.538Z,15.10
2022-08-16T13:01:06.805Z,18.30
2022-08-16T13:06:13.413Z,16.52
2022-08-16T13:11:33.622Z,15.10
2022-08-16T13:16:35.280Z,16.67
2022-08-16T13:21:37.254Z,18.98
2022-08-16T13:26:38.852Z,16.27
2022-08-16T13:31:41.596Z,18.15
2022-08-16T13:36:49.469Z,16.15
2022-08-16T13:41:56.034Z,15.65
2022-08-16T13:46:57.807Z,14.40
2022-08-16T13:51:59.481Z,13.35
2022-08-16T13:57:01.873Z,16.38
2022-08-16T14:02:07.204Z,15.50
2022-08-16T14:07:20.061Z,14.73
2022-08-16T14:12:30.215Z,15.55
2022-08-16T14:18:15.967Z,18.73
2022-08-16T14:22:55.003Z,17.13
2022-08-16T14:27:57.396Z,17.55
2022-08-16T14:33:00.170Z,18.20
2022-08-16T14:38:01.948Z,17.02
2022-08-16T14:43:07.349Z,20.70
2022-08-16T14:48:09.238Z,17.48
2022-08-16T14:53:11.200Z,17.17
2022-08-16T15:04:04.059Z,19.20
2022-08-16T15:14:56.908Z,16.30
2022-08-16T15:20:01.243Z,16.08
2022-08-16T15:25:07.602Z,18.95
2022-08-16T15:30:57.748Z,18.40
2022-08-16T15:35:43.149Z,16.90
2022-08-16T15:40:57.584Z,16.85
2022-08-16T15:46:34.600Z,17.63
2022-08-16T15:51:47.643Z,19.52
2022-08-16T15:56:55.478Z,18.60
2022-08-16T16:01:58.549Z,16.67
2022-08-16T16:07:00.375Z,15.55
2022-08-16T16:12:12.020Z,14.23
2022-08-16T16:17:26.500Z,13.10
2022-08-16T16:22:38.239Z,14.38
2022-08-16T16:27:43.296Z,12.00
2022-08-16T16:32:45.130Z,11.88
2022-08-16T16:37:47.079Z,10.52
2022-08-16T16:42:53.040Z,10.23
2022-08-16T16:47:55.168Z,12.18
2022-08-16T16:53:17.076Z,11.10
2022-08-16T16:58:43.206Z,11.85
2022-08-16T17:03:46.306Z,12.07
2022-08-16T17:08:56.135Z,13.35
2022-08-16T17:13:58.245Z,13.43
2022-08-16T17:19:17.094Z,14.43
2022-08-16T17:24:33.241Z,17.67
2022-08-16T17:36:36.597Z,19.98
2022-08-16T17:41:39.193Z,19.17
2022-08-16T17:46:50.706Z,17.83
2022-08-16T17:51:54.386Z,20.80
2022-08-16T17:57:00.869Z,23.27
2022-08-16T18:02:42.154Z,21.58
2022-08-16T18:07:24.821Z,22.40
2022-08-16T18:12:51.029Z,21.98
2022-08-16T18:17:53.364Z,20.02
2022-08-16T18:23:01.789Z,22.77
2022-08-16T18:28:03.973Z,25.20
2022-08-16T18:33:05.975Z,25.70
2022-08-16T18:38:07.753Z,22.85
2022-08-16T18:43:13.930Z,25.45
2022-08-16T18:48:17.880Z,23.80
2022-08-16T18:53:21.893Z,26.33
2022-08-16T18:58:24.405Z,27.38
2022-08-16T19:03:30.245Z,25.60
2022-08-16T19:08:34.882Z,26.05
2022-08-16T19:13:40.516Z,28.85
2022-08-16T19:18:42.651Z,23.25
2022-08-16T19:23:45.320Z,29.67
2022-08-16T19:28:58.896Z,25.92
2022-08-16T19:34:04.561Z,31.35
2022-08-16T19:39:10.514Z,31.70
2022-08-16T19:44:12.881Z,28.88
2022-08-16T19:49:16.212Z,35.38
2022-08-16T19:54:18.593Z,33.10
2022-08-16T19:59:39.887Z,36.28
2022-08-16T20:04:42.669Z,35.03
2022-08-16T20:09:45.037Z,33.10
2022-08-16T20:14:47.661Z,36.67
2022-08-16T20:19:49.508Z,34.08
2022-08-16T20:24:51.897Z,36.88
2022-08-16T20:29:55.301Z,36.15
2022-08-16T20:34:57.074Z,35.85
2022-08-16T20:40:28.423Z,31.67
2022-08-16T20:45:26.989Z,32.38
2022-08-16T20:50:29.778Z,32.23
2022-08-16T20:55:34.882Z,32.97
2022-08-16T21:00:37.236Z,29.65
2022-08-16T21:05:39.360Z,29.58
2022-08-16T21:10:41.124Z,31.33
2022-08-16T21:15:43.435Z,30.60
2022-08-16T21:20:45.058Z,33.55
2022-08-16T21:25:57.914Z,29.70
2022-08-16T21:31:00.744Z,29.02
2022-08-16T21:41:55.383Z,29.75
2022-08-16T21:46:57.700Z,28.58
2022-08-16T21:52:26.161Z,37.05
2022-08-16T21:57:35.419Z,28.80
2022-08-16T22:02:39.120Z,31.02
2022-08-16T22:13:26.481Z,31.05
2022-08-16T22:18:28.186Z,31.50
2022-08-16T22:23:31.917Z,31.65
2022-08-16T22:28:33.603Z,31.48
2022-08-16T22:33:35.211Z,33.03
2022-08-16T22:38:53.976Z,32.30
2022-08-16T22:43:59.575Z,29.73
2022-08-16T22:49:01.343Z,28.15
2022-08-16T22:54:44.375Z,29.42
2022-08-16T22:59:25.710Z,42.97
2022-08-16T23:04:27.376Z,28.73
2022-08-16T23:09:29.058Z,29.05
2022-08-16T23:14:30.712Z,28.70
2022-08-16T23:19:32.301Z,26.90
2022-08-16T23:24:37.251Z,34.15
2022-08-16T23:29:55.816Z,28.95
2022-08-16T23:34:58.451Z,33.95
2022-08-16T23:40:00.280Z,33.28
2022-08-16T23:45:02.036Z,32.05
2022-08-16T23:50:04.435Z,36.03
2022-08-16T23:55:06.500Z,31.27
